Pocatello, ID

1:02 PM MST on March 03, 2015 (GMT -0700)
University Area | Change Station
CLOSE
Current Station
Personal Weather Station
Location: Pocatello, ID
Elevation: 4659 ft
Nearby Weather Stations

Elev 4659 ft 42.86 °N, 112.42 °W | Updated 1 second ago

Partly Cloudy
Partly Cloudy
29.7 °F
Feels Like 23 °F
N
6.9
Wind Variable Wind from North
Gusts 16.8 mph

Today
High -- | Low -- °F
--% Chance of Precip.
Yesterday
High -- | Low -- °F
Precip. -- in
7:02 AM 6:21 PM
Waxing Gibbous, 97% visible
Pressure 30.01 in
Visibility 10.0 miles
Clouds Few 3500 ft
Windchill 23 °F
Dew Point 1 °F
Humidity 29%
Rainfall 0.00 in
Snow Depth Not available.
UV 5 out of 12
Pollen .20 out of 12
Air Quality Not available.
Flu Activity Not available.
METAR KPIH 031953Z 06011KT 10SM FEW035 M03/M13 A2995 RMK AO2 SLP163 T10281128

More Conditions Fewer Conditions

Pressure 30.01 in
Visibility 10.0 miles
Clouds Few 3500 ft
Windchill 23 °F
Dew Point 1 °F
Humidity 29%
Rainfall 0.00 in
Snow Depth Not available.
UV 5 out of 12
Pollen .20 out of 12
Air Quality Not available.
Flu Activity Not available.
METAR KPIH 031953Z 06011KT 10SM FEW035 M03/M13 A2995 RMK AO2 SLP163 T10281128

More Conditions Fewer Conditions

10-Day Weather Forecast

Almanac

Astronomy

Mar. 03, 2015 Rise Set
Actual Time
Civil Twilight
Nautical Twilight
Astronomical Twilight
Moon
Length of Visible Light
Length of Day
Tomorrow will be .
, % of the Moon is Illuminated

Today's Extremes

State Highs State Lows

Community

WunderPhotos

Upload Photos

1,802,226 photos uploaded!

WunderBlogs® & News

Nearby

Air Quality

  Air Quality AQ Index Pollutant
Not available.

Snow Depth

Station Depth Elevation

Earthquake Activity

City Distance Mag. Time & Date
Minimum magnitude displayed is 2.5.

Coastal Water Temperatures

Place Temperature

Nearby Weather Stations